Batterdale, United Kingdom
Current Conditions -  °F | °C
As of 6:20 PM on Friday 31 Oct 2014 (Local Time) from EGGW Reporting Station
Clear Clear  
Wind Chill: 61°   Ceiling: Unl
Heat Index: 61°   Visibility: 6mi
Dew Point: 54°   Wind: 8mph
Humidity: 77%   Direction: 170°S
Pressure: 29.94"   Gusts: NA
Location:  51.76°N, 0.21°W
Report Text: EGGW 311820Z 17007KT CAVOK 16/12 Q1014
Loading
Personal Weather Stations






























Interactive Weather Map
Tropical Storm Tracking
New forecast layout! Learn more

10-Day Weather Forecast

Advertisements
Track Severe Weather on mobile